Time;durP1;ratioP1;P1;durP2;ratioP2;P2;SDS_P1;SDS_P2;PMS_P1;PMS_P2;Temp;Humidity;BMP_temperature;BMP_pressure;BME280_temperature;BME280_humidity;BME280_pressure;Samples;Min_cycle;Max_cycle;Signal;HPM_P1;HPM_P2
2022/11/09 00:01:15;;;;;;;4.67;4.07;;;;;;;10.67;100.00;97782.25;5096528;28;20258;-78
2022/11/09 00:03:43;;;;;;;4.57;3.70;;;;;;;10.69;100.00;97784.75;5096546;28;20631;-77
2022/11/09 00:06:10;;;;;;;5.00;3.67;;;;;;;10.71;100.00;97785.50;5096577;28;20255;-77
2022/11/09 00:08:37;;;;;;;4.23;3.50;;;;;;;10.72;100.00;97784.53;5094467;28;20278;-77
2022/11/09 00:11:05;;;;;;;4.10;3.70;;;;;;;10.69;100.00;97782.97;5096560;28;20548;-77
2022/11/09 00:13:35;;;;;;;4.63;4.07;;;;;;;10.68;100.00;97786.56;5096467;28;20258;-78
2022/11/09 00:16:01;;;;;;;4.43;4.03;;;;;;;10.66;100.00;97785.00;5096387;28;20255;-77
2022/11/09 00:18:28;;;;;;;5.70;4.43;;;;;;;10.67;100.00;97789.31;5096352;28;20254;-78
2022/11/09 00:20:56;;;;;;;5.10;3.87;;;;;;;10.65;100.00;97785.97;5096378;28;20250;-78
2022/11/09 00:23:23;;;;;;;4.63;4.13;;;;;;;10.64;100.00;97781.66;5098084;28;20257;-77
2022/11/09 00:25:49;;;;;;;6.23;4.50;;;;;;;10.63;100.00;97780.78;5099913;28;20265;-78
2022/11/09 00:28:16;;;;;;;4.70;3.83;;;;;;;10.61;100.00;97779.22;5099755;28;20274;-78
2022/11/09 00:30:43;;;;;;;5.27;4.20;;;;;;;10.61;100.00;97774.78;5099790;28;20298;-78
2022/11/09 00:33:11;;;;;;;4.93;4.43;;;;;;;10.61;100.00;97773.94;5099829;28;20648;-78
2022/11/09 00:35:38;;;;;;;4.67;3.90;;;;;;;10.59;100.00;97770.56;5098084;28;20220;-78
2022/11/09 00:38:06;;;;;;;5.60;4.30;;;;;;;10.58;100.00;97772.34;5099503;28;20257;-77
2022/11/09 00:40:33;;;;;;;5.87;4.27;;;;;;;10.55;100.00;97769.09;5099642;28;20255;-77
2022/11/09 00:42:59;;;;;;;5.00;4.13;;;;;;;10.52;100.00;97779.91;5099558;28;20253;-78
2022/11/09 00:45:26;;;;;;;6.00;5.13;;;;;;;10.54;100.00;97775.34;5099478;28;20282;-76
2022/11/09 00:47:53;;;;;;;6.33;5.40;;;;;;;10.54;100.00;97767.44;5099319;28;20273;-78
2022/11/09 00:50:19;;;;;;;8.23;5.13;;;;;;;10.59;100.00;97765.28;5099335;28;20262;-77
2022/11/09 00:52:47;;;;;;;6.63;5.10;;;;;;;10.65;100.00;97764.81;5099363;28;20262;-78
2022/11/09 00:55:16;;;;;;;6.57;5.13;;;;;;;10.70;100.00;97757.41;5099248;28;20619;-78
2022/11/09 00:57:42;;;;;;;5.90;4.77;;;;;;;10.74;100.00;97757.03;5099253;28;20299;-77
2022/11/09 01:00:11;;;;;;;5.80;4.80;;;;;;;10.80;100.00;97753.09;5097377;28;21081;-77
2022/11/09 01:02:37;;;;;;;7.00;5.10;;;;;;;10.81;100.00;97746.84;5099284;28;20521;-78
2022/11/09 01:05:05;;;;;;;7.53;4.87;;;;;;;10.85;100.00;97745.66;5099099;28;20257;-78
2022/11/09 01:07:31;;;;;;;6.77;5.00;;;;;;;10.84;100.00;97743.97;5099098;28;20372;-78
2022/11/09 01:09:58;;;;;;;7.03;4.87;;;;;;;10.85;100.00;97745.66;5099109;28;20594;-77
2022/11/09 01:12:26;;;;;;;6.73;4.87;;;;;;;10.87;100.00;97754.28;5099005;28;20298;-78
2022/11/09 01:14:52;;;;;;;6.73;4.57;;;;;;;10.87;100.00;97756.94;5098955;28;20660;-78
2022/11/09 01:17:20;;;;;;;6.60;5.17;;;;;;;10.89;100.00;97760.31;5098957;28;20264;-78
2022/11/09 01:19:46;;;;;;;7.70;5.13;;;;;;;10.86;100.00;97757.91;5098818;28;20224;-78
2022/11/09 01:22:13;;;;;;;6.23;5.20;;;;;;;10.88;100.00;97759.47;5098776;28;20251;-76
2022/11/09 01:24:39;;;;;;;7.33;5.07;;;;;;;10.90;100.00;97760.19;5098674;28;20326;-78
2022/11/09 01:27:06;;;;;;;6.40;4.97;;;;;;;10.91;100.00;97755.75;5096916;28;20258;-78
2022/11/09 01:29:34;;;;;;;9.17;5.47;;;;;;;10.92;100.00;97768.00;5098564;28;20254;-76
2022/11/09 01:32:01;;;;;;;7.67;5.27;;;;;;;10.88;100.00;97766.59;5098662;28;20345;-76
2022/11/09 01:34:28;;;;;;;6.93;5.07;;;;;;;10.89;100.00;97762.97;5098527;28;20589;-77
2022/11/09 01:36:55;;;;;;;6.13;4.63;;;;;;;10.90;100.00;97765.47;5098564;28;20215;-77
2022/11/09 01:39:22;;;;;;;7.23;5.33;;;;;;;10.95;100.00;97757.22;5098534;28;20242;-77
2022/11/09 01:41:49;;;;;;;7.07;5.40;;;;;;;10.95;100.00;97757.22;5098594;28;20216;-77
2022/11/09 01:44:17;;;;;;;6.93;5.00;;;;;;;10.96;100.00;97751.78;5098510;28;20263;-77
2022/11/09 01:46:50;;;;;;;6.53;5.50;;;;;;;10.97;100.00;97756.16;5098414;28;20249;-77
2022/11/09 01:49:30;;;;;;;6.17;4.93;;;;;;;10.95;100.00;97751.94;5098258;28;20352;-77
2022/11/09 01:52:01;;;;;;;8.40;5.20;;;;;;;10.97;100.00;97750.00;5096593;28;20253;-77
2022/11/09 01:54:34;;;;;;;5.90;5.07;;;;;;;10.99;100.00;97748.06;5098346;28;20261;-77
2022/11/09 01:57:06;;;;;;;6.63;4.73;;;;;;;11.00;100.00;97744.50;5098331;28;20255;-77
2022/11/09 01:59:38;;;;;;;5.33;4.80;;;;;;;11.02;100.00;97739.91;5098314;28;20219;-77
2022/11/09 02:02:06;;;;;;;7.77;5.30;;;;;;;11.03;100.00;97728.38;5097957;28;20257;-77
2022/11/09 02:04:39;;;;;;;6.27;4.53;;;;;;;11.05;100.00;97737.03;5098011;28;20251;-76
2022/11/09 02:07:06;;;;;;;6.47;4.83;;;;;;;11.10;99.58;97732.22;5097909;28;20251;-76
2022/11/09 02:09:40;;;;;;;8.20;5.43;;;;;;;11.07;99.01;97730.66;5097596;28;20317;-76
2022/11/09 02:12:08;;;;;;;8.20;5.57;;;;;;;11.05;99.07;97742.31;5097866;28;20365;-76
2022/11/09 02:14:35;;;;;;;8.17;5.70;;;;;;;11.01;100.00;97762.84;5097883;28;20218;-76
2022/11/09 02:17:03;;;;;;;6.13;4.63;;;;;;;11.15;99.62;97759.16;5096945;28;20253;-76
2022/11/09 02:19:31;;;;;;;7.23;5.57;;;;;;;11.21;99.66;97759.53;5097268;28;20256;-76
2022/11/09 02:21:59;;;;;;;6.63;4.97;;;;;;;11.33;97.45;97760.38;5097823;28;20256;-76
2022/11/09 02:24:27;;;;;;;6.50;4.83;;;;;;;11.35;96.43;97755.81;5097771;28;20591;-76
2022/11/09 02:26:54;;;;;;;5.93;4.53;;;;;;;11.38;95.40;97751.09;5097624;28;20263;-76
2022/11/09 02:29:26;;;;;;;6.90;4.40;;;;;;;11.43;95.93;97748.13;5097608;28;20301;-76
2022/11/09 02:31:55;;;;;;;8.77;4.47;;;;;;;11.45;95.94;97751.50;5097578;28;20272;-76
2022/11/09 02:34:24;;;;;;;4.73;3.87;;;;;;;11.47;94.84;97744.25;5097769;28;20259;-76
2022/11/09 02:36:51;;;;;;;5.13;3.73;;;;;;;11.57;94.98;97739.94;5097406;28;20254;-76
2022/11/09 02:39:21;;;;;;;4.83;3.30;;;;;;;11.58;94.68;97737.22;5097483;28;20246;-76
2022/11/09 02:41:52;;;;;;;4.50;3.30;;;;;;;11.62;93.59;97735.97;5097249;28;20257;-76
2022/11/09 02:44:19;;;;;;;3.40;3.10;;;;;;;11.68;93.10;97747.91;5095651;28;20254;-76
2022/11/09 02:46:46;;;;;;;3.80;3.10;;;;;;;11.70;93.48;97753.91;5096803;28;20257;-76
2022/11/09 02:49:12;;;;;;;3.80;2.70;;;;;;;11.76;92.98;97748.13;5097143;28;20275;-76
2022/11/09 02:51:39;;;;;;;5.47;3.37;;;;;;;11.77;92.58;97741.84;5097184;28;20254;-76
2022/11/09 02:54:06;;;;;;;4.80;2.90;;;;;;;11.73;92.39;97749.22;5097147;28;20256;-76
2022/11/09 02:56:34;;;;;;;3.70;3.30;;;;;;;11.72;92.10;97754.63;5097096;28;20252;-76
2022/11/09 02:59:02;;;;;;;3.20;2.80;;;;;;;11.79;91.68;97756.66;5097081;28;20260;-77
2022/11/09 03:01:28;;;;;;;2.90;2.60;;;;;;;11.91;91.36;97750.38;5097094;28;20625;-77
2022/11/09 03:03:55;;;;;;;3.23;2.53;;;;;;;11.91;91.05;97749.53;5096986;28;20246;-77
2022/11/09 03:06:33;;;;;;;4.07;2.77;;;;;;;11.95;90.60;97745.69;5097042;28;20264;-77
2022/11/09 03:09:00;;;;;;;3.87;2.87;;;;;;;12.00;90.96;97751.44;5094962;28;20292;-76
2022/11/09 03:11:26;;;;;;;2.97;2.67;;;;;;;11.98;90.30;97756.03;5097210;28;20268;-76
2022/11/09 03:13:54;;;;;;;4.37;3.00;;;;;;;11.94;91.35;97765.19;5096949;28;20257;-76
2022/11/09 03:16:21;;;;;;;4.53;2.70;;;;;;;11.97;91.71;97764.94;5097400;28;20338;-77
2022/11/09 03:18:48;;;;;;;3.97;2.77;;;;;;;11.90;93.15;97784.94;5097096;28;20261;-77
2022/11/09 03:21:14;;;;;;;3.60;3.10;;;;;;;11.77;96.47;97811.56;5096975;28;20255;-77
2022/11/09 03:23:41;;;;;;;4.83;3.07;;;;;;;11.64;99.77;97831.16;5097015;28;20260;-77
2022/11/09 03:26:07;;;;;;;3.23;2.60;;;;;;;11.55;100.00;97829.22;5096902;28;20275;-77
2022/11/09 03:28:34;;;;;;;3.00;2.50;;;;;;;11.43;100.00;97827.50;5096686;28;20230;-79
2022/11/09 03:31:02;;;;;;;3.17;2.87;;;;;;;11.35;100.00;97827.25;5096902;28;20367;-80
2022/11/09 03:33:29;;;;;;;3.00;2.70;;;;;;;11.32;100.00;97852.13;5096736;28;20250;-80
2022/11/09 03:35:56;;;;;;;3.67;3.07;;;;;;;11.29;100.00;97862.09;5095117;28;20572;-81
2022/11/09 03:38:22;;;;;;;3.97;2.93;;;;;;;11.21;100.00;97851.28;5096686;28;20250;-83
2022/11/09 03:40:49;;;;;;;3.57;2.80;;;;;;;11.22;100.00;97864.38;5096767;28;20262;-80
2022/11/09 03:43:16;;;;;;;3.83;3.10;;;;;;;11.18;100.00;97870.03;5096643;28;20617;-80
2022/11/09 03:45:42;;;;;;;2.90;2.63;;;;;;;11.18;100.00;97859.47;5096617;28;20675;-80
2022/11/09 03:48:10;;;;;;;5.30;3.60;;;;;;;11.20;100.00;97870.75;5096544;28;20614;-80
2022/11/09 03:50:39;;;;;;;3.47;2.83;;;;;;;11.18;100.00;97867.38;5096523;28;20306;-81
2022/11/09 03:53:06;;;;;;;4.07;3.47;;;;;;;11.14;100.00;97864.09;5096507;28;20216;-80
2022/11/09 03:55:33;;;;;;;3.67;2.80;;;;;;;11.16;100.00;97867.50;5096544;28;20218;-80
2022/11/09 03:58:00;;;;;;;3.70;3.10;;;;;;;11.13;100.00;97866.88;5097809;28;20214;-79
2022/11/09 04:00:28;;;;;;;3.43;3.07;;;;;;;11.09;100.00;97862.78;5098717;28;20311;-78
2022/11/09 04:02:54;;;;;;;4.60;3.30;;;;;;;11.01;100.00;97859.88;5100566;28;20566;-79
2022/11/09 04:05:22;;;;;;;4.47;3.70;;;;;;;10.92;100.00;97857.91;5100334;28;20295;-78
2022/11/09 04:07:51;;;;;;;7.60;4.47;;;;;;;10.80;100.00;97846.47;5099963;28;20572;-77
2022/11/09 04:10:18;;;;;;;5.23;4.60;;;;;;;10.71;100.00;97860.34;5100171;28;20664;-76
2022/11/09 04:12:45;;;;;;;5.30;4.80;;;;;;;10.63;100.00;97854.78;5100219;28;20612;-76
2022/11/09 04:15:12;;;;;;;6.43;5.10;;;;;;;10.55;100.00;97859.81;5100283;28;20275;-75
2022/11/09 04:17:40;;;;;;;5.23;4.73;;;;;;;10.50;100.00;97866.34;5099980;28;20254;-74
2022/11/09 04:20:08;;;;;;;6.83;5.20;;;;;;;10.47;100.00;97862.13;5100082;28;20280;-75
2022/11/09 04:22:37;;;;;;;5.83;5.23;;;;;;;10.43;100.00;97870.41;5099930;28;20634;-75
2022/11/09 04:25:04;;;;;;;9.23;5.73;;;;;;;10.41;100.00;97867.03;5099892;28;20253;-75
2022/11/09 04:27:31;;;;;;;5.63;5.03;;;;;;;10.41;100.00;97872.31;5098066;28;20221;-74
2022/11/09 04:29:58;;;;;;;7.37;4.90;;;;;;;10.39;100.00;97876.88;5099746;28;20274;-75
2022/11/09 04:32:24;;;;;;;6.17;4.90;;;;;;;10.37;100.00;97886.69;5099859;28;20222;-73
2022/11/09 04:34:51;;;;;;;5.63;5.00;;;;;;;10.36;100.00;97877.94;5099865;28;20268;-73
2022/11/09 04:37:17;;;;;;;7.37;5.53;;;;;;;10.38;100.00;97893.66;5099826;28;20254;-74
2022/11/09 04:39:45;;;;;;;6.10;4.83;;;;;;;10.39;100.00;97890.09;5099831;28;20258;-73
2022/11/09 04:42:12;;;;;;;6.87;4.83;;;;;;;10.41;100.00;97882.91;5099691;28;20278;-74
2022/11/09 04:44:39;;;;;;;6.77;5.17;;;;;;;10.41;100.00;97872.31;5099627;28;20301;-74
2022/11/09 04:47:05;;;;;;;7.03;5.53;;;;;;;10.39;100.00;97874.25;5099568;28;20258;-73
2022/11/09 04:49:32;;;;;;;6.83;5.67;;;;;;;10.37;100.00;97881.41;5099565;28;20314;-73
2022/11/09 04:51:59;;;;;;;7.50;5.90;;;;;;;10.36;100.00;97879.75;5097677;28;20627;-74
2022/11/09 04:54:25;;;;;;;6.80;5.43;;;;;;;10.36;100.00;97871.81;5099428;28;20307;-72
2022/11/09 04:56:53;;;;;;;7.33;5.97;;;;;;;10.35;100.00;97878.88;5099278;28;20230;-70
2022/11/09 04:59:20;;;;;;;7.27;6.17;;;;;;;10.32;100.00;97865.06;5099247;28;20257;-71
2022/11/09 05:01:47;;;;;;;7.63;6.10;;;;;;;10.31;100.00;97864.22;5099195;28;20219;-71
2022/11/09 05:04:13;;;;;;;9.47;6.13;;;;;;;10.31;100.00;97866.00;5099086;28;20253;-71
2022/11/09 05:06:40;;;;;;;8.10;6.63;;;;;;;10.33;100.00;97864.13;5099201;28;20220;-71
2022/11/09 05:09:07;;;;;;;9.43;7.17;;;;;;;10.30;100.00;97864.34;5098619;28;20274;-71
2022/11/09 05:11:35;;;;;;;7.97;6.93;;;;;;;10.27;100.00;97864.56;5099135;28;20251;-71
2022/11/09 05:14:04;;;;;;;7.93;6.30;;;;;;;10.24;100.00;97864.78;5099112;28;20297;-70
2022/11/09 05:16:30;;;;;;;9.43;7.30;;;;;;;10.21;100.00;97870.28;5099073;28;20262;-70
2022/11/09 05:18:57;;;;;;;8.50;6.67;;;;;;;10.24;100.00;97875.34;5097185;28;20246;-70
2022/11/09 05:21:24;;;;;;;8.67;6.63;;;;;;;10.25;100.00;97862.03;5099004;28;20256;-72
2022/11/09 05:23:58;;;;;;;6.90;6.00;;;;;;;10.25;100.00;97866.47;5098850;28;20255;-70
2022/11/09 05:26:27;;;;;;;7.13;6.10;;;;;;;10.21;100.00;97870.28;5098796;28;20214;-70
2022/11/09 05:28:53;;;;;;;7.03;6.27;;;;;;;10.19;100.00;97859.81;5098846;28;20297;-70
2022/11/09 05:31:21;;;;;;;6.83;5.80;;;;;;;10.17;100.00;97856.47;5098674;28;20251;-70
2022/11/09 05:33:50;;;;;;;8.87;6.03;;;;;;;10.17;100.00;97859.09;5098754;28;20257;-70
2022/11/09 05:36:17;;;;;;;7.57;6.37;;;;;;;10.19;100.00;97858.97;5098666;28;20615;-69
2022/11/09 05:38:44;;;;;;;8.93;6.27;;;;;;;10.16;100.00;97844.19;5098512;28;20252;-69
2022/11/09 05:41:11;;;;;;;7.60;6.07;;;;;;;10.15;100.00;97847.78;5098426;28;20310;-69
2022/11/09 05:43:37;;;;;;;6.80;6.10;;;;;;;10.16;100.00;97856.56;5096578;28;20255;-69
2022/11/09 05:46:04;;;;;;;7.83;6.00;;;;;;;10.16;100.00;97852.09;5098471;28;20282;-70
2022/11/09 05:48:32;;;;;;;8.23;6.40;;;;;;;10.16;100.00;97846.81;5098269;28;20357;-70
2022/11/09 05:51:01;;;;;;;7.00;6.30;;;;;;;10.16;100.00;97844.19;5098111;28;20264;-70
2022/11/09 05:53:28;;;;;;;6.83;6.00;;;;;;;10.18;100.00;97849.38;5097936;28;20584;-70
2022/11/09 05:55:54;;;;;;;6.80;6.20;;;;;;;10.20;100.00;97847.44;5098043;28;20217;-71
2022/11/09 05:58:21;;;;;;;8.37;5.63;;;;;;;10.21;100.00;97842.06;5098006;28;20265;-70
2022/11/09 06:00:48;;;;;;;6.30;5.20;;;;;;;10.21;100.00;97838.59;5097957;28;20255;-71
2022/11/09 06:03:15;;;;;;;6.43;5.77;;;;;;;10.19;100.00;97843.13;5098035;28;20263;-71
2022/11/09 06:05:43;;;;;;;7.47;5.67;;;;;;;10.18;100.00;97849.38;5098117;28;20219;-71
2022/11/09 06:08:12;;;;;;;6.60;5.40;;;;;;;10.18;100.00;97844.09;5097908;28;20428;-71
2022/11/09 06:10:39;;;;;;;5.97;5.40;;;;;;;10.17;100.00;97843.25;5096205;28;20642;-71
2022/11/09 06:13:06;;;;;;;8.40;5.47;;;;;;;10.15;100.00;97839.03;5097983;28;20251;-71
2022/11/09 06:15:33;;;;;;;5.93;5.30;;;;;;;10.17;100.00;97852.97;5097959;28;20262;-72
2022/11/09 06:18:00;;;;;;;7.93;6.10;;;;;;;10.17;100.00;97847.69;5097929;28;20251;-73
2022/11/09 06:20:28;;;;;;;6.73;5.47;;;;;;;10.18;100.00;97859.94;5096907;28;20254;-73
2022/11/09 06:22:57;;;;;;;6.10;5.50;;;;;;;10.19;100.00;97866.91;5097634;28;20250;-72
2022/11/09 06:25:24;;;;;;;6.10;5.33;;;;;;;10.23;100.00;97869.22;5097566;28;20239;-71
2022/11/09 06:27:54;;;;;;;6.43;5.73;;;;;;;10.29;100.00;97883.78;5097836;28;20252;-71
2022/11/09 06:30:21;;;;;;;8.03;5.53;;;;;;;10.34;100.00;97890.41;5097513;28;20271;-72
2022/11/09 06:32:47;;;;;;;6.43;5.47;;;;;;;10.39;100.00;97890.91;5097698;28;20256;-73
2022/11/09 06:35:14;;;;;;;7.93;5.47;;;;;;;10.43;100.00;97887.13;5095804;28;20251;-71
2022/11/09 06:37:41;;;;;;;7.60;6.03;;;;;;;10.46;100.00;97878.13;5097452;28;20256;-71
2022/11/09 06:40:11;;;;;;;6.17;5.37;;;;;;;10.49;100.00;97876.09;5097396;28;20255;-72
2022/11/09 06:42:38;;;;;;;6.63;5.47;;;;;;;10.53;100.00;97876.72;5097350;28;20524;-72
2022/11/09 06:45:05;;;;;;;6.57;5.70;;;;;;;10.53;100.00;97888.13;5097370;28;20250;-71
2022/11/09 06:47:31;;;;;;;7.77;6.30;;;;;;;10.51;100.00;97887.41;5097298;28;20301;-72
2022/11/09 06:49:58;;;;;;;7.00;5.97;;;;;;;10.50;100.00;97884.84;5097220;28;20271;-73
2022/11/09 06:52:25;;;;;;;8.03;6.20;;;;;;;10.50;100.00;97882.22;5097207;28;20652;-72
2022/11/09 06:54:51;;;;;;;6.83;5.90;;;;;;;10.51;100.00;97891.84;5097126;28;20254;-72
2022/11/09 06:57:19;;;;;;;7.67;5.70;;;;;;;10.51;100.00;97895.31;5097179;28;20299;-73
2022/11/09 06:59:46;;;;;;;6.63;5.97;;;;;;;10.53;100.00;97897.84;5097190;28;20254;-74
2022/11/09 07:02:16;;;;;;;7.77;6.37;;;;;;;10.55;100.00;97903.88;5095409;28;20644;-74
2022/11/09 07:04:42;;;;;;;8.27;6.37;;;;;;;10.56;100.00;97908.19;5097076;28;20221;-74
2022/11/09 07:07:09;;;;;;;8.20;6.13;;;;;;;10.56;100.00;97905.56;5096928;28;20258;-74
2022/11/09 07:09:36;;;;;;;8.50;6.47;;;;;;;10.60;100.00;97909.66;5096884;28;20281;-73
2022/11/09 07:12:03;;;;;;;7.77;6.10;;;;;;;10.63;100.00;97920.00;5096790;28;20255;-74
2022/11/09 07:14:31;;;;;;;8.47;7.20;;;;;;;10.60;100.00;97965.16;5096933;28;20638;-74
2022/11/09 07:16:57;;;;;;;8.73;7.47;;;;;;;10.47;100.00;97998.72;5096936;28;20264;-74
2022/11/09 07:19:24;;;;;;;10.07;8.57;;;;;;;10.44;100.00;97988.34;5097037;28;20246;-74
2022/11/09 07:21:51;;;;;;;9.53;7.33;;;;;;;10.44;100.00;97988.34;5097066;28;20281;-73
2022/11/09 07:24:17;;;;;;;8.83;6.90;;;;;;;10.50;100.00;97972.06;5096897;28;20259;-74
2022/11/09 07:26:44;;;;;;;8.90;6.67;;;;;;;10.59;100.00;97966.94;5094980;28;20631;-76
2022/11/09 07:29:10;;;;;;;11.00;6.37;;;;;;;10.69;100.00;97969.78;5096976;28;20277;-76
2022/11/09 07:31:38;;;;;;;7.33;6.27;;;;;;;10.78;100.00;97961.19;5097537;28;20254;-74
2022/11/09 07:34:05;;;;;;;6.70;5.57;;;;;;;10.83;100.00;97965.19;5101041;28;20264;-73
2022/11/09 07:36:32;;;;;;;7.00;5.63;;;;;;;10.89;100.00;97953.34;5101019;28;20264;-73
2022/11/09 07:38:59;;;;;;;6.63;5.63;;;;;;;10.94;100.00;97965.25;5100934;28;20261;-73
2022/11/09 07:41:26;;;;;;;6.33;5.17;;;;;;;10.97;100.00;97967.69;5100944;28;20250;-72
2022/11/09 07:43:52;;;;;;;9.20;6.07;;;;;;;11.01;100.00;97952.44;5100887;28;20263;-72
2022/11/09 07:46:19;;;;;;;6.27;5.57;;;;;;;11.04;100.00;97954.84;5100766;28;20260;-72
2022/11/09 07:48:47;;;;;;;8.40;6.50;;;;;;;11.06;100.00;97950.31;5100666;28;20657;-73
2022/11/09 07:51:13;;;;;;;8.03;6.40;;;;;;;11.05;100.00;97962.66;5100673;28;20496;-72
2022/11/09 07:53:40;;;;;;;6.80;6.10;;;;;;;11.06;100.00;97960.88;5098994;28;20546;-74
2022/11/09 07:56:07;;;;;;;7.87;6.33;;;;;;;11.05;100.00;97964.44;5100528;28;20620;-73
2022/11/09 07:58:35;;;;;;;7.13;6.13;;;;;;;11.06;100.00;97963.53;5100700;28;20216;-73
2022/11/09 08:01:07;;;;;;;7.17;5.93;;;;;;;11.07;100.00;97957.28;5100567;28;20215;-72
2022/11/09 08:03:33;;;;;;;7.40;6.10;;;;;;;11.13;100.00;97962.09;5100332;28;20232;-73
2022/11/09 08:06:01;;;;;;;7.27;6.33;;;;;;;11.14;100.00;97963.78;5100341;28;20310;-73
2022/11/09 08:08:28;;;;;;;7.90;6.43;;;;;;;11.16;100.00;97961.88;5100083;28;20283;-71
2022/11/09 08:10:57;;;;;;;6.97;6.03;;;;;;;11.22;100.00;97967.56;5100097;28;20315;-72
2022/11/09 08:13:24;;;;;;;6.30;5.63;;;;;;;11.30;100.00;97966.97;5100106;28;20255;-72
2022/11/09 08:15:50;;;;;;;6.33;5.73;;;;;;;11.34;100.00;97965.78;5100341;28;20262;-72
2022/11/09 08:18:19;;;;;;;6.50;5.80;;;;;;;11.35;100.00;97963.03;5098317;28;20254;-71
2022/11/09 08:20:47;;;;;;;7.70;5.40;;;;;;;11.37;100.00;97955.00;5100232;28;20250;-71
2022/11/09 08:23:17;;;;;;;7.30;6.27;;;;;;;11.42;100.00;97966.03;5100021;28;20248;-71
2022/11/09 08:25:44;;;;;;;8.27;5.90;;;;;;;11.45;100.00;97957.91;5100026;28;20257;-73
2022/11/09 08:28:10;;;;;;;6.67;5.77;;;;;;;11.49;100.00;97964.66;5099930;28;20634;-72
2022/11/09 08:30:37;;;;;;;7.13;5.93;;;;;;;11.50;100.00;97961.88;5099802;28;20300;-72
2022/11/09 08:33:04;;;;;;;7.50;6.30;;;;;;;11.50;100.00;97966.34;5099816;28;20220;-73
2022/11/09 08:35:31;;;;;;;6.90;6.00;;;;;;;11.49;100.00;97951.41;5099785;28;20260;-73
2022/11/09 08:38:01;;;;;;;6.43;5.83;;;;;;;11.45;100.00;97958.75;5099800;28;20221;-72
2022/11/09 08:40:30;;;;;;;8.23;6.00;;;;;;;11.45;100.00;97961.41;5099950;28;20520;-73
2022/11/09 08:43:02;;;;;;;8.07;6.73;;;;;;;11.43;100.00;97965.13;5099227;28;20259;-73
2022/11/09 08:45:28;;;;;;;8.20;6.70;;;;;;;11.42;100.00;97963.41;5097752;28;20221;-74
2022/11/09 08:47:58;;;;;;;8.07;6.27;;;;;;;11.44;100.00;97969.44;5099539;28;20254;-73
2022/11/09 08:50:25;;;;;;;9.17;6.00;;;;;;;11.46;100.00;97960.44;5099521;28;20239;-73
2022/11/09 08:52:52;;;;;;;6.80;6.10;;;;;;;11.50;100.00;97961.88;5098180;28;20260;-74
2022/11/09 08:55:18;;;;;;;6.50;5.87;;;;;;;11.56;100.00;97958.75;5096896;28;20263;-75
2022/11/09 08:57:46;;;;;;;11.37;5.90;;;;;;;11.61;100.00;97966.41;5098085;28;20303;-74
2022/11/09 09:00:14;;;;;;;8.03;6.27;;;;;;;11.65;100.00;97965.19;5098062;28;20250;-70
2022/11/09 09:02:41;;;;;;;6.77;6.03;;;;;;;11.72;100.00;97958.47;5081379;28;20309;-71
2022/11/09 09:05:08;;;;;;;7.20;5.97;;;;;;;11.78;100.00;97961.50;5097006;28;20249;-73
2022/11/09 09:07:35;;;;;;;7.87;5.73;;;;;;;11.88;100.00;97961.63;5098157;28;20261;-71
2022/11/09 09:10:01;;;;;;;7.93;5.83;;;;;;;11.99;100.00;97966.97;5095657;28;20278;-72
2022/11/09 09:12:28;;;;;;;6.50;5.80;;;;;;;12.04;100.00;97954.22;5097995;28;20265;-71
2022/11/09 09:14:56;;;;;;;7.17;5.93;;;;;;;12.04;100.00;97962.16;5098214;28;20255;-72
2022/11/09 09:17:23;;;;;;;6.70;5.53;;;;;;;12.10;100.00;97966.97;5097253;28;20569;-73
2022/11/09 09:19:49;;;;;;;8.10;6.00;;;;;;;12.12;100.00;97965.03;5098167;28;20277;-72
2022/11/09 09:22:16;;;;;;;6.80;5.00;;;;;;;12.15;100.00;97975.38;5098594;28;20254;-73
2022/11/09 09:24:42;;;;;;;5.80;5.00;;;;;;;12.13;100.00;97970.22;5098996;28;20254;-74
2022/11/09 09:27:09;;;;;;;5.37;4.33;;;;;;;12.14;100.00;97965.75;5098796;28;20258;-74
2022/11/09 09:29:36;;;;;;;5.97;4.90;;;;;;;12.16;100.00;97974.44;5098757;28;20607;-76
2022/11/09 09:32:04;;;;;;;6.07;4.73;;;;;;;12.21;100.00;97988.16;5098821;28;20705;-75
2022/11/09 09:34:31;;;;;;;5.10;4.60;;;;;;;12.21;100.00;97985.50;5098732;28;20261;-76
2022/11/09 09:36:58;;;;;;;5.77;4.47;;;;;;;12.21;100.00;97980.19;5096811;28;20270;-78
2022/11/09 09:39:24;;;;;;;6.70;4.73;;;;;;;12.17;100.00;97978.78;5098640;28;20578;-76
2022/11/09 09:41:54;;;;;;;6.30;5.40;;;;;;;12.17;100.00;97984.06;5098408;28;20254;-77
2022/11/09 09:44:29;;;;;;;5.60;4.77;;;;;;;12.22;100.00;97989.88;5098575;28;20257;-78
2022/11/09 09:47:03;;;;;;;5.77;4.30;;;;;;;12.30;100.00;97984.81;5098462;28;20263;-77
2022/11/09 09:49:34;;;;;;;5.87;4.93;;;;;;;12.42;100.00;97991.78;5098251;28;20305;-76
2022/11/09 09:52:09;;;;;;;5.57;4.97;;;;;;;12.51;100.00;97993.69;5098213;28;20257;-78
2022/11/09 09:54:41;;;;;;;6.90;4.67;;;;;;;12.65;100.00;97996.13;5098232;28;20216;-77
2022/11/09 09:57:16;;;;;;;5.87;4.17;;;;;;;12.81;100.00;97999.22;5098296;28;20249;-77
2022/11/09 09:59:46;;;;;;;6.70;4.77;;;;;;;12.95;100.00;97985.72;5098218;28;20311;-78
2022/11/09 10:02:22;;;;;;;4.70;4.20;;;;;;;13.04;100.00;97988.50;5093885;28;20350;-78
2022/11/09 10:04:51;;;;;;;6.87;4.40;;;;;;;13.12;100.00;97983.38;5077910;28;20222;-79
2022/11/09 10:07:24;;;;;;;6.20;4.60;;;;;;;13.01;100.00;97994.03;5077809;28;20275;-79
2022/11/09 10:10:26;;;;;;;4.67;3.90;;;;;;;13.15;100.00;97990.25;5077706;28;20278;-80
2022/11/09 10:13:21;;;;;;;5.93;4.10;;;;;;;13.28;100.00;97993.59;5074762;28;20219;-81
2022/11/09 10:15:52;;;;;;;5.97;4.60;;;;;;;13.38;100.00;97992.69;5070751;28;20319;-82
2022/11/09 10:18:34;;;;;;;5.20;4.40;;;;;;;13.44;100.00;97991.38;5077474;28;20253;-83
2022/11/09 10:21:27;;;;;;;5.07;4.30;;;;;;;13.47;100.00;97986.66;5077632;28;20563;-82
2022/11/09 10:24:06;;;;;;;6.67;4.20;;;;;;;13.54;100.00;97982.50;5077608;28;20268;-83
2022/11/09 10:26:39;;;;;;;4.27;3.70;;;;;;;13.64;100.00;97982.56;5077444;28;20218;-83
2022/11/09 10:29:25;;;;;;;4.20;3.60;;;;;;;13.74;100.00;97978.19;5075777;28;20298;-83
2022/11/09 10:31:53;;;;;;;4.13;3.73;;;;;;;13.86;100.00;97977.13;5077423;28;20273;-82
2022/11/09 10:34:24;;;;;;;3.70;3.40;;;;;;;13.93;100.00;97967.69;5077285;28;20222;-82
2022/11/09 10:37:04;;;;;;;5.83;3.70;;;;;;;13.98;100.00;97965.47;5077292;28;20216;-83
2022/11/09 10:39:40;;;;;;;4.23;3.30;;;;;;;14.04;100.00;97964.94;5077264;28;20302;-78
2022/11/09 10:42:10;;;;;;;3.67;3.00;;;;;;;14.07;100.00;97960.22;5077142;28;20222;-78
2022/11/09 10:44:37;;;;;;;4.80;3.67;;;;;;;14.09;100.00;97952.97;5076499;28;20462;-75
2022/11/09 10:47:07;;;;;;;3.40;3.10;;;;;;;14.18;100.00;97959.28;5077111;28;20216;-75
2022/11/09 10:49:35;;;;;;;4.03;2.90;;;;;;;14.24;100.00;97950.81;5077173;28;20286;-75
2022/11/09 10:52:03;;;;;;;3.60;3.10;;;;;;;14.29;100.00;97945.97;5077290;28;20255;-75
2022/11/09 10:54:33;;;;;;;14.80;12.67;;;;;;;14.38;100.00;97945.16;5075559;28;20221;-76
2022/11/09 10:57:10;;;;;;;4.97;3.77;;;;;;;14.41;100.00;97942.19;5077081;28;20224;-76
2022/11/09 10:59:43;;;;;;;3.73;3.37;;;;;;;14.50;100.00;97941.41;5077157;28;20219;-75
2022/11/09 11:02:42;;;;;;;3.83;2.97;;;;;;;14.58;100.00;97937.09;5078989;28;20631;-76
2022/11/09 11:05:32;;;;;;;3.10;2.80;;;;;;;14.66;100.00;97934.59;5097229;28;20639;-75
2022/11/09 11:08:19;;;;;;;3.67;3.00;;;;;;;14.72;100.00;97930.56;5096489;28;20653;-75
2022/11/09 11:10:46;;;;;;;3.73;2.90;;;;;;;14.77;100.00;97941.63;5096869;28;20372;-76
2022/11/09 11:13:21;;;;;;;2.57;2.37;;;;;;;14.79;100.00;97927.19;5096934;28;20299;-76
2022/11/09 11:15:48;;;;;;;4.93;3.17;;;;;;;14.82;100.00;97931.41;5097107;28;20216;-76
2022/11/09 11:18:25;;;;;;;3.80;2.70;;;;;;;14.82;100.00;97920.78;5097000;28;20566;-76
2022/11/09 11:21:07;;;;;;;4.87;3.10;;;;;;;14.87;100.00;97929.19;5095579;28;20247;-76
2022/11/09 11:23:36;;;;;;;2.77;2.50;;;;;;;14.93;100.00;97926.84;5096991;28;20230;-77
2022/11/09 11:26:38;;;;;;;3.10;2.80;;;;;;;15.01;100.00;97918.13;5096937;28;20258;-76
2022/11/09 11:29:13;;;;;;;3.10;2.80;;;;;;;15.09;100.00;97913.81;5096910;28;20260;-75
2022/11/09 11:31:40;;;;;;;5.20;3.40;;;;;;;15.16;100.00;97903.44;5096707;28;20314;-77
2022/11/09 11:34:12;;;;;;;3.47;2.70;;;;;;;15.21;100.00;97901.22;5096922;28;20254;-77